createdAt,value
2018-06-28T00:00:26.839Z,560.4
2018-06-28T00:01:29.290Z,560.8
2018-06-28T00:02:31.477Z,560.7
2018-06-28T00:03:33.358Z,560.7
2018-06-28T00:04:35.523Z,560.5
2018-06-28T00:05:37.406Z,560.4
2018-06-28T00:06:39.848Z,560.7
2018-06-28T00:07:42.301Z,560.7
2018-06-28T00:08:44.672Z,560.6
2018-06-28T00:09:46.482Z,560.7
2018-06-28T00:10:48.387Z,561.2
2018-06-28T00:11:50.850Z,561
2018-06-28T00:12:53.295Z,561.3
2018-06-28T00:13:55.738Z,562
2018-06-28T00:14:57.917Z,561.8
2018-06-28T00:16:00.105Z,562.2
2018-06-28T00:17:02.261Z,561.7
2018-06-28T00:18:04.445Z,562
2018-06-28T00:19:06.900Z,562
2018-06-28T00:20:09.058Z,561.6
2018-06-28T00:21:10.669Z,561.7
2018-06-28T00:22:12.843Z,561.5
2018-06-28T00:23:15.019Z,561.4
2018-06-28T00:24:17.202Z,561.5
2018-06-28T00:25:19.366Z,561.4
2018-06-28T00:26:21.553Z,561.3
2018-06-28T00:27:23.739Z,561.5
2018-06-28T00:28:25.397Z,561.5
2018-06-28T00:29:27.549Z,561.3
2018-06-28T00:30:29.729Z,561.4
2018-06-28T00:31:32.183Z,561.5
2018-06-28T00:32:34.357Z,561.7
2018-06-28T00:33:36.555Z,561.8
2018-06-28T00:34:39.022Z,561.9
2018-06-28T00:35:41.473Z,561.9
2018-06-28T00:36:43.931Z,561.9
2018-06-28T00:37:45.824Z,561.3
2018-06-28T00:38:47.742Z,561.5
2018-06-28T00:39:50.178Z,561.6
2018-06-28T00:40:52.639Z,561.8
2018-06-28T00:41:55.088Z,561.7
2018-06-28T00:42:57.529Z,561.9
2018-06-28T00:43:59.182Z,562.1
2018-06-28T00:45:01.638Z,561.9
2018-06-28T00:46:04.094Z,561.9
2018-06-28T00:47:06.273Z,562
2018-06-28T00:48:08.183Z,562.6
2018-06-28T00:49:10.367Z,562.7
2018-06-28T00:50:12.816Z,563
2018-06-28T00:51:15.264Z,563.2
2018-06-28T00:52:16.912Z,563.1
2018-06-28T00:53:19.355Z,563
2018-06-28T00:54:21.798Z,563
2018-06-28T00:55:24.243Z,563.7
2018-06-28T00:56:26.117Z,563.6
2018-06-28T00:57:28.272Z,563.6
2018-06-28T00:58:30.724Z,563.4
2018-06-28T00:59:32.877Z,563.3
2018-06-28T01:00:35.045Z,563.7
2018-06-28T01:01:37.225Z,563.6
2018-06-28T01:02:39.667Z,563.7
2018-06-28T01:03:41.612Z,563.9
2018-06-28T01:04:44.060Z,563.7
2018-06-28T01:05:46.256Z,563.6
2018-06-28T01:06:48.428Z,563.9
2018-06-28T01:07:50.622Z,564.1
2018-06-28T01:08:52.807Z,564.5
2018-06-28T01:09:54.698Z,564.3
2018-06-28T01:10:57.150Z,564.3
2018-06-28T01:11:59.590Z,564.6
2018-06-28T01:13:02.042Z,564.5
2018-06-28T01:14:04.493Z,564.5
2018-06-28T01:15:06.389Z,564.6
2018-06-28T01:16:08.836Z,564.8
2018-06-28T01:17:11.271Z,565.1
2018-06-28T01:18:13.165Z,565.3
2018-06-28T01:19:15.615Z,565.7
2018-06-28T01:20:17.810Z,565.8
2018-06-28T01:21:19.464Z,566.1
2018-06-28T01:22:21.637Z,566
2018-06-28T01:23:23.801Z,566.2
2018-06-28T01:24:25.668Z,566
2018-06-28T01:25:27.838Z,565.7
2018-06-28T01:26:30.291Z,565.9
2018-06-28T01:27:32.201Z,565.8
2018-06-28T01:28:34.667Z,565.8
2018-06-28T01:29:36.879Z,565.5
2018-06-28T01:30:39.329Z,565.5
2018-06-28T01:31:41.499Z,565.7
2018-06-28T01:32:43.682Z,565.4
2018-06-28T01:33:45.858Z,565.7
2018-06-28T01:34:48.038Z,565.1
2018-06-28T01:35:50.485Z,565.1
2018-06-28T01:36:52.932Z,565.5
2018-06-28T01:37:54.814Z,565.6
2018-06-28T01:38:56.970Z,565.7
2018-06-28T01:39:59.153Z,565.6
2018-06-28T01:41:01.608Z,565.5
2018-06-28T01:42:03.486Z,565.7
2018-06-28T01:43:05.667Z,565.5
2018-06-28T01:44:07.552Z,565.4
2018-06-28T01:45:09.452Z,565.7
2018-06-28T01:46:11.598Z,565.9
2018-06-28T01:47:13.484Z,565.8
2018-06-28T01:48:15.409Z,566.1
2018-06-28T01:49:17.857Z,566.2
2018-06-28T01:50:20.041Z,566.2
2018-06-28T01:51:22.497Z,566.5
2018-06-28T01:52:24.099Z,566.4
2018-06-28T01:53:26.242Z,566.6
2018-06-28T01:54:28.168Z,566.5
2018-06-28T01:55:30.345Z,566.8
2018-06-28T01:56:32.544Z,566.5
2018-06-28T01:57:34.692Z,566.5
2018-06-28T01:58:36.861Z,566.7
2018-06-28T01:59:39.331Z,567
2018-06-28T02:00:41.781Z,567
2018-06-28T02:01:44.229Z,566.6
2018-06-28T02:02:46.156Z,566.7
2018-06-28T02:03:48.330Z,566.7
2018-06-28T02:04:50.765Z,566.5
2018-06-28T02:05:53.217Z,567
2018-06-28T02:06:55.126Z,567.3
2018-06-28T02:07:57.311Z,567.4
2018-06-28T02:08:58.955Z,567.5
2018-06-28T02:10:01.400Z,567.1
2018-06-28T02:11:03.018Z,567.5
2018-06-28T02:12:05.193Z,567.2
2018-06-28T02:13:07.369Z,567
2018-06-28T02:14:09.833Z,567.1
2018-06-28T02:15:12.270Z,567.5
2018-06-28T02:16:14.436Z,566.9
2018-06-28T02:17:16.611Z,567
2018-06-28T02:18:19.068Z,567.1
2018-06-28T02:19:20.969Z,566.9
2018-06-28T02:20:23.410Z,567.4
2018-06-28T02:21:25.310Z,567.2
2018-06-28T02:22:27.476Z,567.5
2018-06-28T02:23:29.925Z,567.2
2018-06-28T02:24:31.540Z,567.6
2018-06-28T02:25:33.999Z,567.5
2018-06-28T02:26:36.182Z,567.5
2018-06-28T02:27:38.090Z,567.8
2018-06-28T02:28:40.541Z,567.6
2018-06-28T02:29:42.430Z,567.6
2018-06-28T02:30:44.333Z,567.3
2018-06-28T02:31:46.219Z,567.9
2018-06-28T02:32:48.666Z,568.1
2018-06-28T02:33:51.124Z,568
2018-06-28T02:34:53.566Z,567.8
2018-06-28T02:35:55.775Z,567.4
2018-06-28T02:36:58.216Z,567.3
2018-06-28T02:38:00.407Z,567.5
2018-06-28T02:39:02.584Z,567.8
2018-06-28T02:40:05.029Z,567.4
2018-06-28T02:41:07.528Z,567.7
2018-06-28T02:42:09.969Z,567.4
2018-06-28T02:43:11.872Z,567.8
2018-06-28T02:44:13.836Z,567.4
2018-06-28T02:45:16.300Z,567.5
2018-06-28T02:46:18.218Z,567.6
2018-06-28T02:47:20.388Z,567.6
2018-06-28T02:48:22.558Z,567.3
2018-06-28T02:49:24.734Z,567.8
2018-06-28T02:50:26.947Z,567.9
2018-06-28T02:51:29.130Z,567.8
2018-06-28T02:52:31.322Z,567.3
2018-06-28T02:53:33.495Z,568
2018-06-28T02:54:35.950Z,567.9
2018-06-28T02:55:38.422Z,567.8
2018-06-28T02:56:40.593Z,568.1
2018-06-28T02:57:42.495Z,567.8
2018-06-28T02:58:44.947Z,567.6
2018-06-28T02:59:46.840Z,567.7
2018-06-28T03:00:48.996Z,568.2
2018-06-28T03:01:50.898Z,568
2018-06-28T03:02:53.353Z,568
2018-06-28T03:03:55.522Z,568
2018-06-28T03:04:58.028Z,567.9
2018-06-28T03:06:00.187Z,568
2018-06-28T03:07:02.637Z,567.5
2018-06-28T03:08:04.291Z,567.6
2018-06-28T03:09:06.760Z,567.7
2018-06-28T03:10:08.927Z,567.4
2018-06-28T03:11:11.080Z,567.6
2018-06-28T03:12:12.707Z,567.2
2018-06-28T03:13:15.168Z,567.3
2018-06-28T03:14:17.062Z,567.5
2018-06-28T03:15:19.246Z,567.5
2018-06-28T03:16:21.722Z,567.2
2018-06-28T03:17:24.170Z,567.3
2018-06-28T03:18:26.366Z,567.2
2018-06-28T03:19:28.560Z,567.4
2018-06-28T03:20:31.010Z,567.4
2018-06-28T03:21:33.465Z,567.4
2018-06-28T03:22:35.925Z,567.8
2018-06-28T03:23:38.113Z,567.3
2018-06-28T03:24:40.264Z,567.4
2018-06-28T03:25:42.437Z,567
2018-06-28T03:26:44.602Z,566.9
2018-06-28T03:27:47.059Z,567.1
2018-06-28T03:28:49.504Z,567
2018-06-28T03:29:51.672Z,567.1
2018-06-28T03:30:54.390Z,566.8
2018-06-28T03:31:56.101Z,567.5
2018-06-28T03:32:58.272Z,567.4
2018-06-28T03:33:59.883Z,567.5
2018-06-28T03:35:02.035Z,567.4
2018-06-28T03:36:04.203Z,567.1
2018-06-28T03:37:06.649Z,567.3
2018-06-28T03:38:08.840Z,567.4
2018-06-28T03:39:11.290Z,567.4
2018-06-28T03:40:13.460Z,567.4
2018-06-28T03:41:15.910Z,567.5
2018-06-28T03:42:17.821Z,567.4
2018-06-28T03:43:19.989Z,567.6
2018-06-28T03:44:22.179Z,567.3
2018-06-28T03:45:24.352Z,567.7
2018-06-28T03:46:26.552Z,567.5
2018-06-28T03:47:28.197Z,567.8
2018-06-28T03:48:30.371Z,567.7
2018-06-28T03:49:32.523Z,567.5
2018-06-28T03:50:34.970Z,568.1
2018-06-28T03:51:36.865Z,567.9
2018-06-28T03:52:39.040Z,568.1
2018-06-28T03:53:41.220Z,567.8
2018-06-28T03:54:43.400Z,567.7
2018-06-28T03:55:45.852Z,567.9
2018-06-28T03:56:48.024Z,568.1
2018-06-28T03:57:50.343Z,568.2
2018-06-28T03:58:52.883Z,568.3
2018-06-28T03:59:54.853Z,568.2
2018-06-28T04:00:57.305Z,568
2018-06-28T04:01:59.743Z,568.2
2018-06-28T04:03:02.194Z,567.8
2018-06-28T04:04:04.391Z,568.2
2018-06-28T04:05:06.824Z,568.3
2018-06-28T04:06:09.279Z,568.1
2018-06-28T04:07:11.462Z,568.1
2018-06-28T04:08:13.911Z,568
2018-06-28T04:09:15.509Z,567.6
2018-06-28T04:10:17.999Z,567.5
2018-06-28T04:11:19.901Z,567.9
2018-06-28T04:12:22.079Z,567.6
2018-06-28T04:13:24.521Z,567.6
2018-06-28T04:14:26.990Z,567.3
2018-06-28T04:15:29.157Z,567.4
2018-06-28T04:16:31.070Z,567.7
2018-06-28T04:17:33.253Z,567.8
2018-06-28T04:18:35.440Z,567.6
2018-06-28T04:19:37.898Z,567.4
2018-06-28T04:20:40.097Z,567.3
2018-06-28T04:21:42.289Z,567.4
2018-06-28T04:22:44.739Z,567
2018-06-28T04:23:46.629Z,567.2
2018-06-28T04:24:49.065Z,567.2
2018-06-28T04:25:50.962Z,567.6
2018-06-28T04:26:53.139Z,567.4
2018-06-28T04:27:55.590Z,567.6
2018-06-28T04:28:57.777Z,567.7
2018-06-28T04:29:59.924Z,567.8
2018-06-28T04:31:01.818Z,567.8
2018-06-28T04:32:04.266Z,568
2018-06-28T04:33:06.448Z,567.8
2018-06-28T04:34:08.622Z,567.7
2018-06-28T04:35:10.520Z,567.8
2018-06-28T04:36:12.692Z,567.7
2018-06-28T04:37:14.309Z,567.8
2018-06-28T04:38:16.766Z,567.6
2018-06-28T04:39:18.952Z,567.7
2018-06-28T04:40:21.411Z,567.5
2018-06-28T04:41:23.859Z,567.7
2018-06-28T04:42:26.037Z,567.5
2018-06-28T04:43:28.211Z,567.9
2018-06-28T04:44:29.829Z,567.6
2018-06-28T04:45:32.008Z,568
2018-06-28T04:46:34.471Z,567.5
2018-06-28T04:47:36.933Z,567.7
2018-06-28T04:48:39.390Z,567.9
2018-06-28T04:49:41.541Z,567.9
2018-06-28T04:50:43.721Z,568
2018-06-28T04:51:46.179Z,567.8
2018-06-28T04:52:48.342Z,567.7
2018-06-28T04:53:50.536Z,567.8
2018-06-28T04:54:52.718Z,567.9
2018-06-28T04:55:55.173Z,567.8
2018-06-28T04:56:57.822Z,567.5
2018-06-28T04:58:00.278Z,567.6
2018-06-28T04:59:02.715Z,567.6
2018-06-28T05:00:04.606Z,567.5
2018-06-28T05:01:06.790Z,567.7
2018-06-28T05:02:08.976Z,567.8
2018-06-28T05:03:11.159Z,567.7
2018-06-28T05:04:13.610Z,567.9
2018-06-28T05:05:16.082Z,567.9
2018-06-28T05:06:18.531Z,568.2
2018-06-28T05:07:20.442Z,568.1
2018-06-28T05:08:22.427Z,568.2
2018-06-28T05:09:24.867Z,567.8
2018-06-28T05:10:27.337Z,568.3
2018-06-28T05:11:29.239Z,568.3
2018-06-28T05:12:31.689Z,568.6
2018-06-28T05:13:33.595Z,568.1
2018-06-28T05:14:35.786Z,568
2018-06-28T05:15:37.964Z,568.1
2018-06-28T05:16:40.109Z,568.4
2018-06-28T05:17:42.579Z,568.1
2018-06-28T05:18:44.470Z,568.1
2018-06-28T05:19:46.929Z,568.4
2018-06-28T05:20:49.234Z,568.5
2018-06-28T05:21:51.735Z,568.2
2018-06-28T05:22:54.112Z,568.4
2018-06-28T05:23:56.591Z,568.4
2018-06-28T05:24:58.547Z,568.9
2018-06-28T05:26:01.075Z,568.5
2018-06-28T05:27:03.270Z,568.6
2018-06-28T05:28:05.795Z,568.8
2018-06-28T05:29:07.826Z,568.9
2018-06-28T05:30:09.775Z,568.9
2018-06-28T05:31:12.219Z,569
2018-06-28T05:32:13.843Z,568.8
2018-06-28T05:33:16.213Z,569
2018-06-28T05:34:18.120Z,568.9
2018-06-28T05:35:20.301Z,568.9
2018-06-28T05:36:22.744Z,569
2018-06-28T05:37:24.932Z,569
2018-06-28T05:38:27.379Z,568.7
2018-06-28T05:39:29.821Z,568.7
2018-06-28T05:40:32.269Z,568.9
2018-06-28T05:41:34.159Z,569.2
2018-06-28T05:42:36.605Z,569
2018-06-28T05:43:39.062Z,569.5
2018-06-28T05:44:40.936Z,568.9
2018-06-28T05:45:43.395Z,569.2
2018-06-28T05:46:45.881Z,569.4
2018-06-28T05:47:48.320Z,569.1
2018-06-28T05:48:50.523Z,569.4
2018-06-28T05:49:52.968Z,569.1
2018-06-28T05:50:55.154Z,569.2
2018-06-28T05:51:57.608Z,569.4
2018-06-28T05:53:00.063Z,569.5
2018-06-28T05:54:02.878Z,569.5
2018-06-28T05:55:04.964Z,569.4
2018-06-28T05:56:07.425Z,569
2018-06-28T05:57:09.604Z,569.5
2018-06-28T05:58:11.794Z,569.1
2018-06-28T05:59:13.429Z,569.1
2018-06-28T06:00:15.590Z,568.8
2018-06-28T06:01:18.171Z,568.8
2018-06-28T06:02:20.606Z,569
2018-06-28T06:03:23.068Z,568.8
2018-06-28T06:04:25.244Z,568.5
2018-06-28T06:05:27.130Z,568.6
2018-06-28T06:06:29.597Z,568.6
2018-06-28T06:07:31.802Z,568.3
2018-06-28T06:08:34.237Z,568.3
2018-06-28T06:09:36.416Z,568.3
2018-06-28T06:10:38.871Z,568.4
2018-06-28T06:11:40.781Z,568.3
2018-06-28T06:12:42.663Z,568.3
2018-06-28T06:13:44.837Z,568.1
2018-06-28T06:14:47.279Z,568.4
2018-06-28T06:15:49.167Z,568.4
2018-06-28T06:16:51.628Z,568.5
2018-06-28T06:17:54.071Z,568.5
2018-06-28T06:18:56.240Z,568.6
2018-06-28T06:19:58.688Z,568.6
2018-06-28T06:21:00.863Z,568.6
2018-06-28T06:22:03.040Z,568.8
2018-06-28T06:23:05.486Z,568.8
2018-06-28T06:24:07.639Z,569
2018-06-28T06:25:09.789Z,569.1
2018-06-28T06:26:11.700Z,569.2
2018-06-28T06:27:14.164Z,569
2018-06-28T06:28:16.620Z,569.1
2018-06-28T06:29:18.572Z,569.2
2018-06-28T06:30:20.757Z,569.5
2018-06-28T06:31:23.207Z,569.3
2018-06-28T06:32:25.372Z,569.7
2018-06-28T06:33:26.985Z,570.1
2018-06-28T06:34:28.906Z,570.5
2018-06-28T06:35:31.401Z,570.4
2018-06-28T06:36:33.861Z,570.2
2018-06-28T06:37:36.022Z,570.3
2018-06-28T06:38:37.917Z,570.3
2018-06-28T06:39:40.371Z,570.3
2018-06-28T06:40:42.264Z,570.1
2018-06-28T06:41:44.720Z,570.3
2018-06-28T06:42:46.882Z,570.7
2018-06-28T06:43:48.863Z,570.3
2018-06-28T06:44:51.324Z,570.5
2018-06-28T06:45:53.523Z,570.5
2018-06-28T06:46:55.979Z,570.5
2018-06-28T06:47:58.163Z,570.9
2018-06-28T06:49:00.330Z,570.9
2018-06-28T06:50:02.195Z,570.7
2018-06-28T06:51:04.358Z,570.9
2018-06-28T06:52:06.803Z,570.5
2018-06-28T06:53:08.741Z,571
2018-06-28T06:54:10.898Z,571
2018-06-28T06:55:13.069Z,570.9
2018-06-28T06:56:15.556Z,570.7
2018-06-28T06:57:17.719Z,570.7
2018-06-28T06:58:19.905Z,570.5
2018-06-28T06:59:22.081Z,570.8
2018-06-28T07:00:24.535Z,570.8
2018-06-28T07:01:26.988Z,571.2
2018-06-28T07:02:29.140Z,571.2
2018-06-28T07:03:31.385Z,570.9
2018-06-28T07:04:34.026Z,570.7
2018-06-28T07:05:36.487Z,571.2
2018-06-28T07:06:38.656Z,570.9
2018-06-28T07:07:41.123Z,570.8
2018-06-28T07:08:43.571Z,571.1
2018-06-28T07:09:46.026Z,571.3
2018-06-28T07:10:48.481Z,571.5
2018-06-28T07:11:50.933Z,571.5
2018-06-28T07:12:52.854Z,571.9
2018-06-28T07:13:55.299Z,572
2018-06-28T07:14:57.509Z,571.3
2018-06-28T07:16:00.279Z,571.9
2018-06-28T07:17:02.508Z,571.6
2018-06-28T07:18:04.692Z,572.2
2018-06-28T07:19:06.603Z,572.3
2018-06-28T07:20:08.804Z,571.7
2018-06-28T07:21:10.988Z,572.3
2018-06-28T07:22:13.148Z,571.9
2018-06-28T07:23:15.023Z,572.1
2018-06-28T07:24:17.317Z,572.2
2018-06-28T07:25:19.497Z,571.8
2018-06-28T07:26:21.740Z,571.7
2018-06-28T07:27:23.825Z,571.5
2018-06-28T07:28:26.820Z,572.2
2018-06-28T07:29:28.729Z,572
2018-06-28T07:30:31.190Z,571.6
2018-06-28T07:31:33.645Z,571.6
2018-06-28T07:32:35.558Z,571.6
2018-06-28T07:33:37.751Z,571.9
2018-06-28T07:34:40.200Z,571.4
2018-06-28T07:35:42.397Z,571.7
2018-06-28T07:36:44.307Z,571.7
2018-06-28T07:37:46.753Z,572
2018-06-28T07:38:48.635Z,572
2018-06-28T07:39:50.822Z,572
2018-06-28T07:40:53.002Z,572.3
2018-06-28T07:41:55.156Z,572.1
2018-06-28T07:42:57.365Z,572.2
2018-06-28T07:43:59.820Z,572.3
2018-06-28T07:45:02.275Z,572.4
2018-06-28T07:46:04.721Z,572.1
2018-06-28T07:47:06.888Z,572.3
2018-06-28T07:48:09.338Z,572.1
2018-06-28T07:49:12.260Z,572.1
2018-06-28T07:50:14.333Z,572
2018-06-28T07:51:16.490Z,571.7
2018-06-28T07:52:18.966Z,571.9
2018-06-28T07:53:21.141Z,571.7
2018-06-28T07:54:23.352Z,571.8
2018-06-28T07:55:26.239Z,571.4
2018-06-28T07:56:28.702Z,571.4
2018-06-28T07:58:33.035Z,571.1
2018-06-28T07:59:35.480Z,571.1
2018-06-28T08:00:37.930Z,571.4
2018-06-28T08:01:39.809Z,571.2
2018-06-28T08:02:42.316Z,571
2018-06-28T08:03:44.116Z,570.8
2018-06-28T08:04:46.421Z,570.7
2018-06-28T08:05:48.875Z,570.7
2018-06-28T08:06:51.337Z,570.9
2018-06-28T08:07:53.830Z,570.6
2018-06-28T08:08:56.005Z,570.7
2018-06-28T08:09:57.908Z,570.6
2018-06-28T08:11:00.089Z,570.5
2018-06-28T08:12:02.566Z,570.8
2018-06-28T08:13:04.733Z,571
2018-06-28T08:14:06.358Z,570.9
2018-06-28T08:15:08.800Z,570.9
2018-06-28T08:16:11.243Z,570.9
2018-06-28T08:17:13.686Z,570.6
2018-06-28T08:18:15.031Z,570.8
2018-06-28T08:19:17.500Z,570.4
2018-06-28T08:20:19.948Z,570.5
2018-06-28T08:21:22.173Z,570.3
2018-06-28T08:22:24.289Z,570.4
2018-06-28T08:23:26.750Z,570.5
2018-06-28T08:24:29.196Z,570.2
2018-06-28T08:25:31.108Z,570.1
2018-06-28T08:26:32.729Z,570
2018-06-28T08:27:34.618Z,570.1
2018-06-28T08:28:36.981Z,569.8
2018-06-28T08:29:39.419Z,569.8
2018-06-28T08:30:41.597Z,569.6
2018-06-28T08:31:44.036Z,569.7
2018-06-28T08:32:46.481Z,569.3
2018-06-28T08:33:48.930Z,569.5
2018-06-28T08:34:51.103Z,569.3
2018-06-28T08:35:53.876Z,569.4
2018-06-28T08:36:56.329Z,569.3
2018-06-28T08:37:58.503Z,569.4
2018-06-28T08:39:00.436Z,569.4
2018-06-28T08:40:02.609Z,569.1
2018-06-28T08:41:05.069Z,568.8
2018-06-28T08:42:07.524Z,568.7
2018-06-28T08:43:10.091Z,568.8
2018-06-28T08:44:11.715Z,568.5
2018-06-28T08:45:14.182Z,568.7
2018-06-28T08:46:16.373Z,568.6
2018-06-28T08:47:18.821Z,568.7
2018-06-28T08:48:20.983Z,568.9
2018-06-28T08:49:23.442Z,569.1
2018-06-28T08:50:25.912Z,568.9
2018-06-28T08:51:28.090Z,569.2
2018-06-28T08:52:30.278Z,568.9
2018-06-28T08:53:32.187Z,568.8
2018-06-28T08:54:34.653Z,568.6
2018-06-28T08:55:36.840Z,568.7
2018-06-28T08:56:39.291Z,569
2018-06-28T08:57:42.247Z,569
2018-06-28T08:58:44.704Z,569.5
2018-06-28T08:59:46.963Z,569.3
2018-06-28T09:00:49.405Z,569.7
2018-06-28T09:01:51.848Z,569.7
2018-06-28T09:02:54.301Z,569.7
2018-06-28T09:03:56.484Z,569.6
2018-06-28T09:04:58.674Z,569.9
2018-06-28T09:06:00.839Z,570.2
2018-06-28T09:07:02.741Z,570
2018-06-28T09:08:05.184Z,570.1
2018-06-28T09:09:07.348Z,569.9
2018-06-28T09:10:09.558Z,569.9
2018-06-28T09:11:12.010Z,569.8
2018-06-28T09:12:13.933Z,569.7
2018-06-28T09:13:16.105Z,569.7
2018-06-28T09:14:18.296Z,569.4
2018-06-28T09:15:20.699Z,569.8
2018-06-28T09:16:22.881Z,569.4
2018-06-28T09:17:25.061Z,569.5
2018-06-28T09:18:26.689Z,569.3
2018-06-28T09:19:28.566Z,569.2
2018-06-28T09:20:30.479Z,569.1
2018-06-28T09:21:32.675Z,569.3
2018-06-28T09:22:35.463Z,569.3
2018-06-28T09:23:37.440Z,568.7
2018-06-28T09:24:39.881Z,568.7
2018-06-28T09:25:42.052Z,568.8
2018-06-28T09:26:44.504Z,569
2018-06-28T09:27:46.411Z,569.2
2018-06-28T09:28:48.861Z,569.5
2018-06-28T09:29:50.767Z,569.7
2018-06-28T09:30:52.939Z,569.7
2018-06-28T09:31:54.818Z,569.9
2018-06-28T09:32:56.744Z,570
2018-06-28T09:33:58.374Z,570.2
2018-06-28T09:35:00.575Z,570.4
2018-06-28T09:36:03.039Z,570.7
2018-06-28T09:37:05.511Z,570.7
2018-06-28T09:38:07.955Z,571.2
2018-06-28T09:39:10.409Z,570.9
2018-06-28T09:40:12.575Z,571.5
2018-06-28T09:41:15.023Z,571.9
2018-06-28T09:42:17.465Z,571.5
2018-06-28T09:43:19.390Z,571.9
2018-06-28T09:44:21.288Z,572.2
2018-06-28T09:45:23.733Z,572.2
2018-06-28T09:46:25.910Z,571.9
2018-06-28T09:47:28.098Z,572.4
2018-06-28T09:48:30.040Z,572.7
2018-06-28T09:49:32.479Z,572.6
2018-06-28T09:50:34.934Z,573
2018-06-28T09:51:37.110Z,573.1
2018-06-28T09:52:39.285Z,572.9
2018-06-28T09:53:41.731Z,572.9
2018-06-28T09:54:43.733Z,573
2018-06-28T09:55:46.197Z,573.4
2018-06-28T09:56:48.367Z,573.8
2018-06-28T09:57:50.805Z,573.4
2018-06-28T09:58:52.955Z,573.9
2018-06-28T09:59:55.411Z,574.1
2018-06-28T10:00:57.847Z,574
2018-06-28T10:01:59.474Z,574
2018-06-28T10:03:01.925Z,573.9
2018-06-28T10:04:03.802Z,574.2
2018-06-28T10:05:05.992Z,573.9
2018-06-28T10:06:07.865Z,574
2018-06-28T10:07:09.781Z,574.4
2018-06-28T10:08:12.242Z,574.3
2018-06-28T10:09:14.407Z,573.9
2018-06-28T10:10:16.567Z,574.1
2018-06-28T10:11:19.060Z,574.1
2018-06-28T10:12:21.501Z,574.4
2018-06-28T10:13:23.939Z,574
2018-06-28T10:14:26.143Z,574.2
2018-06-28T10:15:28.579Z,573.9
2018-06-28T10:16:31.034Z,573.8
2018-06-28T10:17:33.479Z,574
2018-06-28T10:18:35.657Z,574
2018-06-28T10:19:38.111Z,573.9
2018-06-28T10:20:40.296Z,574.2
2018-06-28T10:21:42.481Z,574
2018-06-28T10:22:44.121Z,574.2
2018-06-28T10:23:46.560Z,574.4
2018-06-28T10:24:48.744Z,574.2
2018-06-28T10:25:51.205Z,574.4
2018-06-28T10:26:53.652Z,574.5
2018-06-28T10:27:56.103Z,574.7
2018-06-28T10:28:58.560Z,574.4
2018-06-28T10:30:01.012Z,574.3
2018-06-28T10:31:09.720Z,574.3
2018-06-28T10:32:11.897Z,574.3
2018-06-28T10:33:13.786Z,574.2
2018-06-28T10:34:15.969Z,573.9
2018-06-28T10:35:18.477Z,573.6
2018-06-28T10:36:20.120Z,573.6
2018-06-28T10:37:22.000Z,573.5
2018-06-28T10:38:24.167Z,573.8
2018-06-28T10:39:26.355Z,574.4
2018-06-28T10:40:29.253Z,573.8
2018-06-28T10:41:31.891Z,573.9
2018-06-28T10:42:34.528Z,574.3
2018-06-28T10:43:37.115Z,574
2018-06-28T10:44:39.065Z,574.1
2018-06-28T10:45:41.329Z,574.7
2018-06-28T10:46:43.563Z,574.2
2018-06-28T10:47:45.763Z,574.1
2018-06-28T10:48:48.268Z,574.1
2018-06-28T10:49:50.774Z,574.1
2018-06-28T10:50:52.930Z,573.9
2018-06-28T10:51:55.392Z,574.2
2018-06-28T10:52:57.858Z,574.3
2018-06-28T10:54:00.614Z,574.4
2018-06-28T10:55:02.817Z,574.7
2018-06-28T10:56:05.282Z,574.3
2018-06-28T10:57:07.776Z,574.6
2018-06-28T10:58:09.978Z,574.6
2018-06-28T10:59:12.158Z,575.2
2018-06-28T11:00:14.655Z,574.9
2018-06-28T11:01:17.133Z,575
2018-06-28T11:02:19.592Z,575.4
2018-06-28T11:03:22.060Z,575.2
2018-06-28T11:04:24.520Z,575
2018-06-28T11:05:26.717Z,575.2
2018-06-28T11:06:28.912Z,575.7
2018-06-28T11:07:31.318Z,575.6
2018-06-28T11:08:33.778Z,575.7
2018-06-28T11:09:35.973Z,575.4
2018-06-28T11:10:37.860Z,575.1
2018-06-28T11:11:40.075Z,575.4
2018-06-28T11:12:42.530Z,575.6
2018-06-28T11:13:44.731Z,575.6
2018-06-28T11:14:46.945Z,575.8
2018-06-28T11:15:49.635Z,575.8
2018-06-28T11:16:52.180Z,575.8
2018-06-28T11:17:54.641Z,576
2018-06-28T11:18:57.103Z,576.3
2018-06-28T11:19:59.288Z,576.3
2018-06-28T11:21:01.761Z,576.4
2018-06-28T11:22:04.210Z,576.3
2018-06-28T11:23:05.849Z,576.2
2018-06-28T11:24:08.312Z,576.2
2018-06-28T11:25:10.646Z,576.3
2018-06-28T11:26:12.824Z,576.1
2018-06-28T11:27:15.006Z,576.3
2018-06-28T11:28:17.204Z,576.2
2018-06-28T11:29:19.676Z,576.3
2018-06-28T11:30:22.167Z,576.5
2018-06-28T11:31:24.103Z,576.6
2018-06-28T11:32:26.300Z,576.9
2018-06-28T11:33:28.228Z,576.9
2018-06-28T11:34:30.638Z,576.9
2018-06-28T11:35:33.123Z,577
2018-06-28T11:37:07.432Z,577.6
2018-06-28T11:38:09.916Z,577.7
2018-06-28T11:39:12.376Z,577.9
2018-06-28T11:40:14.568Z,578
2018-06-28T11:41:30.591Z,578
2018-06-28T11:42:32.785Z,578.6
2018-06-28T11:43:34.993Z,578.3
2018-06-28T11:44:37.458Z,578.4
2018-06-28T11:45:39.917Z,578.5
2018-06-28T11:46:42.385Z,578.7
2018-06-28T11:47:44.574Z,578.6
2018-06-28T11:48:47.039Z,578.5
2018-06-28T11:49:49.234Z,578.4
2018-06-28T11:50:51.453Z,578.6
2018-06-28T11:51:53.655Z,578.6
2018-06-28T11:52:56.208Z,578.7
2018-06-28T11:53:58.676Z,578.7
2018-06-28T11:55:01.139Z,578.4
2018-06-28T11:56:03.604Z,579
2018-06-28T11:57:05.589Z,578.5
2018-06-28T11:58:07.796Z,578.8
2018-06-28T11:59:10.255Z,578.9
2018-06-28T12:00:12.892Z,578.7
2018-06-28T12:01:15.469Z,579.2
2018-06-28T12:02:18.210Z,579.1
2018-06-28T12:03:21.056Z,579.2
2018-06-28T12:04:23.649Z,579.4
2018-06-28T12:05:26.509Z,579.6
2018-06-28T12:06:28.958Z,579.5
2018-06-28T12:07:31.432Z,579.9
2018-06-28T12:08:33.329Z,580.1
2018-06-28T12:09:35.800Z,580.3
2018-06-28T12:10:38.387Z,580
2018-06-28T12:11:40.512Z,580.3
2018-06-28T12:12:43.071Z,580.7
2018-06-28T12:13:45.292Z,580.3
2018-06-28T12:14:47.489Z,580.6
2018-06-28T12:15:49.952Z,580.3
2018-06-28T12:16:52.401Z,580.5
2018-06-28T12:17:54.328Z,580.7
2018-06-28T12:18:56.111Z,580.8
2018-06-28T12:19:58.608Z,580.9
2018-06-28T12:21:01.243Z,581
2018-06-28T12:22:03.813Z,581.1
2018-06-28T12:23:06.740Z,581.3
2018-06-28T12:24:09.644Z,581.3
2018-06-28T12:25:12.329Z,581.2
2018-06-28T12:26:15.009Z,581
2018-06-28T12:27:17.187Z,581.4
2018-06-28T12:28:19.471Z,581.3
2018-06-28T12:29:22.003Z,581.6
2018-06-28T12:30:24.219Z,581.3
2018-06-28T12:31:26.758Z,581.5
2018-06-28T12:32:29.259Z,581.9
2018-06-28T12:33:31.776Z,581.6
2018-06-28T12:34:34.307Z,581.8
2018-06-28T12:35:36.987Z,582
2018-06-28T12:36:38.958Z,582.1
2018-06-28T12:37:41.625Z,581.9
2018-06-28T12:38:44.113Z,582.4
2018-06-28T12:39:46.512Z,582.2
2018-06-28T12:40:49.083Z,582
2018-06-28T12:41:51.798Z,582.8
2018-06-28T12:42:54.407Z,582.5
2018-06-28T12:43:56.803Z,582.5
2018-06-28T12:44:59.488Z,582.3
2018-06-28T12:46:02.077Z,582.6
2018-06-28T12:47:04.677Z,582.4
2018-06-28T12:48:07.202Z,582.5
2018-06-28T12:49:09.689Z,582.5
2018-06-28T12:50:12.197Z,582.3
2018-06-28T12:51:14.742Z,582.2
2018-06-28T12:52:16.976Z,582.2
2018-06-28T12:53:19.442Z,582.6
2018-06-28T12:54:22.374Z,582.4
2018-06-28T12:55:24.906Z,582.2
2018-06-28T12:56:27.119Z,582.7
2018-06-28T12:57:29.641Z,582.7
2018-06-28T12:58:32.093Z,583
2018-06-28T12:59:34.575Z,582.9
2018-06-28T13:00:36.776Z,582.9
2018-06-28T13:01:38.943Z,583.1
2018-06-28T13:02:41.409Z,582.9
2018-06-28T13:03:43.611Z,583.3
2018-06-28T13:04:46.074Z,583.1
2018-06-28T13:05:48.538Z,583.2
2018-06-28T13:06:50.990Z,583.4
2018-06-28T13:07:52.600Z,583.4
2018-06-28T13:08:54.771Z,583.1
2018-06-28T13:09:57.239Z,583.3
2018-06-28T13:10:59.441Z,583.3
2018-06-28T13:12:01.614Z,583.2
2018-06-28T13:13:04.013Z,583.2
2018-06-28T13:14:06.252Z,583.5
2018-06-28T13:15:08.431Z,583.6
2018-06-28T13:16:10.949Z,583.8
2018-06-28T13:17:13.401Z,583.5
2018-06-28T13:18:15.618Z,583.9
2018-06-28T13:19:17.523Z,583.9
2018-06-28T13:20:20.151Z,583.9
2018-06-28T13:21:22.343Z,584
2018-06-28T13:22:24.545Z,584.1
2018-06-28T13:23:26.448Z,584
2018-06-28T13:24:28.909Z,583.9
2018-06-28T13:25:30.804Z,584
2018-06-28T13:26:32.959Z,583.8
2018-06-28T13:27:35.411Z,584.1
2018-06-28T13:28:37.712Z,584.1